Time;durP1;ratioP1;P1;durP2;ratioP2;P2;SDS_P1;SDS_P2;PMS_P1;PMS_P2;Temp;Humidity;BMP_temperature;BMP_pressure;BME280_temperature;BME280_humidity;BME280_pressure;Samples;Min_cycle;Max_cycle;Signal;HPM_P1;HPM_P2
2022/10/09 00:04:52;;;;;;;;;;;;;;;;;;5463676;23;20314;-84
2022/10/09 00:07:17;;;;;;;;;;;;;;;;;;4962051;29;19946;-84
2022/10/09 00:09:43;;;;;;;;;;;;;;;;;;4978718;28;19918;-85
2022/10/09 00:12:08;;;;;;;;;;;;;;;;;;4961454;28;19961;-83
2022/10/09 00:14:33;;;;;;;;;;;;;;;;;;4935407;29;19914;-81
2022/10/09 00:16:59;;;;;;;;;;;;;;;;;;4940898;29;19926;-88
2022/10/09 00:19:24;;;;;;;;;;;;;;;;;;4944769;28;19903;-87
2022/10/09 00:21:50;;;;;;;;;;;;;;;;;;5120270;23;20988;-89
2022/10/09 00:29:39;;;;;;;;;;;;;;;;;;5919525;23;19921;-84
2022/10/09 00:42:52;;;;;;;;;;;;;;;;;;5263347;23;19911;-87
2022/10/09 01:15:20;;;;;;;;;;;;;;;;;;5593404;23;19917;-90
2022/10/09 01:28:29;;;;;;;;;;;;;;;;;;5689836;23;19931;-91
2022/10/09 01:30:54;;;;;;;;;;;;;;;;;;5055080;23;19925;-86
2022/10/09 02:33:25;;;;;;;;;;;;;;;;;;5284072;23;19911;-90
2022/10/09 02:35:50;;;;;;;;;;;;;;;;;;5450435;23;19928;-88
2022/10/09 02:49:03;;;;;;;;;;;;;;;;;;5712015;23;20025;-86
2022/10/09 02:51:28;;;;;;;;;;;;;;;;;;4948671;28;19907;-85
2022/10/09 02:53:54;;;;;;;;;;;;;;;;;;4964191;28;19926;-86
2022/10/09 02:59:07;;;;;;;;;;;;;;;;;;5826164;23;19997;-85
2022/10/09 03:15:05;;;;;;;;;;;;;;;;;;5976907;23;20739;-89
2022/10/09 03:42:21;;;;;;;;;;;;;;;;;;5243620;23;19914;-90
2022/10/09 03:44:47;;;;;;;;;;;;;;;;;;4968138;29;19915;-93
2022/10/09 03:47:12;;;;;;;;;;;;;;;;;;4968118;29;19925;-93
2022/10/09 03:49:38;;;;;;;;;;;;;;;;;;4972653;29;19910;-91
2022/10/09 03:52:03;;;;;;;;;;;;;;;;;;4972473;29;19919;-92
2022/10/09 03:54:29;;;;;;;;;;;;;;;;;;4939256;29;19911;-94
2022/10/09 03:56:55;;;;;;;;;;;;;;;;;;4956448;29;19922;-92
2022/10/09 03:59:21;;;;;;;;;;;;;;;;;;4956161;29;20161;-92
2022/10/09 04:01:49;;;;;;;;;;;;;;;;;;4975825;29;19914;-89
2022/10/09 04:04:17;;;;;;;;;;;;;;;;;;4976514;29;19915;-92
2022/10/09 04:06:43;;;;;;;;;;;;;;;;;;4962381;28;19948;-92
2022/10/09 04:09:09;;;;;;;;;;;;;;;;;;5046478;23;19911;-91
2022/10/09 04:11:35;;;;;;;;;;;;;;;;;;5169095;23;19946;-92
2022/10/09 04:16:42;;;;;;;;;;;;;;;;;;5498135;23;19986;-90
2022/10/09 04:19:13;;;;;;;;;;;;;;;;;;4948717;28;19903;-91
2022/10/09 04:21:39;;;;;;;;;;;;;;;;;;4939560;29;19951;-89
2022/10/09 04:24:07;;;;;;;;;;;;;;;;;;4952626;29;19919;-91
2022/10/09 04:26:32;;;;;;;;;;;;;;;;;;4933462;29;20013;-90
2022/10/09 04:28:58;;;;;;;;;;;;;;;;;;4929793;29;19915;-91
2022/10/09 04:31:23;;;;;;;;;;;;;;;;;;4932421;29;19923;-91
2022/10/09 04:33:49;;;;;;;;;;;;;;;;;;4931442;29;19978;-91
2022/10/09 04:36:14;;;;;;;;;;;;;;;;;;4952476;29;20074;-90
2022/10/09 04:41:21;;;;;;;;;;;;;;;;;;5882591;23;19935;-91
2022/10/09 04:43:46;;;;;;;;;;;;;;;;;;5419363;23;19929;-91
2022/10/09 04:46:12;;;;;;;;;;;;;;;;;;4976588;29;20009;-88
2022/10/09 04:48:37;;;;;;;;;;;;;;;;;;4945217;29;19921;-89
2022/10/09 04:51:02;;;;;;;;;;;;;;;;;;4961196;29;20091;-89
2022/10/09 04:53:28;;;;;;;;;;;;;;;;;;4909692;29;20370;-88
2022/10/09 04:55:53;;;;;;;;;;;;;;;;;;4941585;29;19970;-92
2022/10/09 04:58:19;;;;;;;;;;;;;;;;;;4916667;29;19915;-91
2022/10/09 05:00:44;;;;;;;;;;;;;;;;;;4959073;28;19906;-90
2022/10/09 05:05:45;;;;;;;;;;;;;;;;;;5167396;23;19917;-93
2022/10/09 05:08:10;;;;;;;;;;;;;;;;;;4977940;23;19915;-91
2022/10/09 05:10:36;;;;;;;;;;;;;;;;;;4927761;29;19907;-91
2022/10/09 05:13:01;;;;;;;;;;;;;;;;;;4943638;29;19927;-92
2022/10/09 05:15:27;;;;;;;;;;;;;;;;;;4943944;28;19943;-90
2022/10/09 05:17:52;;;;;;;;;;;;;;;;;;4942492;29;19926;-91
2022/10/09 05:20:17;;;;;;;;;;;;;;;;;;4930986;29;20389;-89
2022/10/09 05:22:43;;;;;;;;;;;;;;;;;;4911115;29;19915;-90
2022/10/09 05:25:08;;;;;;;;;;;;;;;;;;4919787;29;20224;-86
2022/10/09 05:27:34;;;;;;;;;;;;;;;;;;4920868;29;19900;-88
2022/10/09 05:29:59;;;;;;;;;;;;;;;;;;4922937;29;19915;-89
2022/10/09 05:32:24;;;;;;;;;;;;;;;;;;4939672;29;19973;-89
2022/10/09 05:34:50;;;;;;;;;;;;;;;;;;4936530;28;19943;-89
2022/10/09 05:37:15;;;;;;;;;;;;;;;;;;4925240;29;19915;-91
2022/10/09 05:39:40;;;;;;;;;;;;;;;;;;4904738;29;19954;-91
2022/10/09 05:42:06;;;;;;;;;;;;;;;;;;4884685;29;19916;-91
2022/10/09 05:44:31;;;;;;;;;;;;;;;;;;4883425;29;19916;-92
2022/10/09 05:46:57;;;;;;;;;;;;;;;;;;4899528;29;20411;-91
2022/10/09 05:49:22;;;;;;;;;;;;;;;;;;4899909;29;19916;-89
2022/10/09 05:51:48;;;;;;;;;;;;;;;;;;4885837;29;19923;-90
2022/10/09 05:54:14;;;;;;;;;;;;;;;;;;4884475;29;19915;-90
2022/10/09 05:56:39;;;;;;;;;;;;;;;;;;4902690;29;19938;-88
2022/10/09 05:59:04;;;;;;;;;;;;;;;;;;4888947;29;19939;-89
2022/10/09 06:01:30;;;;;;;;;;;;;;;;;;4889902;29;19915;-86
2022/10/09 06:03:55;;;;;;;;;;;;;;;;;;4891075;29;19922;-91
2022/10/09 06:06:21;;;;;;;;;;;;;;;;;;4891063;29;19923;-90
2022/10/09 06:08:46;;;;;;;;;;;;;;;;;;4910722;29;19930;-93
2022/10/09 06:11:12;;;;;;;;;;;;;;;;;;4916902;29;19919;-90
2022/10/09 06:13:37;;;;;;;;;;;;;;;;;;4932132;29;19915;-89
2022/10/09 06:16:02;;;;;;;;;;;;;;;;;;4939027;28;19930;-90
2022/10/09 06:21:10;;;;;;;;;;;;;;;;;;5681085;23;20211;-90
2022/10/09 06:23:35;;;;;;;;;;;;;;;;;;5270820;23;19914;-92
2022/10/09 06:26:01;;;;;;;;;;;;;;;;;;4956736;29;19938;-89
2022/10/09 06:28:26;;;;;;;;;;;;;;;;;;4936970;29;19914;-92
2022/10/09 06:30:52;;;;;;;;;;;;;;;;;;4936750;29;19977;-92
2022/10/09 06:33:17;;;;;;;;;;;;;;;;;;4952084;29;19922;-92
2022/10/09 06:35:43;;;;;;;;;;;;;;;;;;4964916;29;19914;-90
2022/10/09 06:38:08;;;;;;;;;;;;;;;;;;4941327;29;19965;-89
2022/10/09 06:40:34;;;;;;;;;;;;;;;;;;4925799;29;20309;-89
2022/10/09 06:42:59;;;;;;;;;;;;;;;;;;4942605;29;19921;-91
2022/10/09 06:45:25;;;;;;;;;;;;;;;;;;4928987;29;19954;-91
2022/10/09 06:47:50;;;;;;;;;;;;;;;;;;4899792;29;19915;-93
2022/10/09 06:50:16;;;;;;;;;;;;;;;;;;4890423;29;19961;-91
2022/10/09 06:52:41;;;;;;;;;;;;;;;;;;4891503;29;20079;-93
2022/10/09 06:55:06;;;;;;;;;;;;;;;;;;4924946;29;19937;-93
2022/10/09 06:57:32;;;;;;;;;;;;;;;;;;4924858;29;19915;-93
2022/10/09 06:59:57;;;;;;;;;;;;;;;;;;4907668;29;19988;-93
2022/10/09 07:02:23;;;;;;;;;;;;;;;;;;4892365;29;19914;-93
2022/10/09 07:04:48;;;;;;;;;;;;;;;;;;4893189;29;19922;-93
2022/10/09 07:07:13;;;;;;;;;;;;;;;;;;4892886;29;19922;-94
2022/10/09 07:09:39;;;;;;;;;;;;;;;;;;4891262;29;20334;-93
2022/10/09 07:12:04;;;;;;;;;;;;;;;;;;4905414;29;19919;-94
2022/10/09 07:14:29;;;;;;;;;;;;;;;;;;4889636;29;20387;-93
2022/10/09 07:16:55;;;;;;;;;;;;;;;;;;4891054;29;19915;-92
2022/10/09 07:19:20;;;;;;;;;;;;;;;;;;4920902;29;20319;-93
2022/10/09 07:21:46;;;;;;;;;;;;;;;;;;4893607;29;19915;-93
2022/10/09 07:24:11;;;;;;;;;;;;;;;;;;4904138;29;19919;-93
2022/10/09 07:26:37;;;;;;;;;;;;;;;;;;4905345;29;19915;-92
2022/10/09 07:29:02;;;;;;;;;;;;;;;;;;4905233;29;19919;-92
2022/10/09 07:31:28;;;;;;;;;;;;;;;;;;4889200;29;19973;-92
2022/10/09 07:33:55;;;;;;;;;;;;;;;;;;4937650;29;19950;-90
2022/10/09 07:36:20;;;;;;;;;;;;;;;;;;4938553;29;19939;-93
2022/10/09 07:38:46;;;;;;;;;;;;;;;;;;4899385;29;20398;-92
2022/10/09 07:41:11;;;;;;;;;;;;;;;;;;4917475;29;20306;-91
2022/10/09 07:43:37;;;;;;;;;;;;;;;;;;4940641;29;20379;-91
2022/10/09 07:46:02;;;;;;;;;;;;;;;;;;4939910;29;20469;-90
2022/10/09 07:48:28;;;;;;;;;;;;;;;;;;4938949;29;19947;-91
2022/10/09 07:50:53;;;;;;;;;;;;;;;;;;4947007;29;19915;-90
2022/10/09 07:53:18;;;;;;;;;;;;;;;;;;4914378;29;20010;-88
2022/10/09 07:55:44;;;;;;;;;;;;;;;;;;4944503;29;19914;-88
2022/10/09 07:58:09;;;;;;;;;;;;;;;;;;4923538;29;19914;-90
2022/10/09 08:00:35;;;;;;;;;;;;;;;;;;4906551;29;19915;-89
2022/10/09 08:05:44;;;;;;;;;;;;;;;;;;5527648;23;20017;-83
2022/10/09 08:08:10;;;;;;;;;;;;;;;;;;4945480;29;19899;-83
2022/10/09 08:10:54;;;;;;;;;;;;;;;;;;4931774;29;19915;-85
2022/10/09 08:13:27;;;;;;;;;;;;;;;;;;4930890;29;19927;-82
2022/10/09 08:15:53;;;;;;;;;;;;;;;;;;4928440;29;19957;-75
2022/10/09 08:18:19;;;;;;;;;;;;;;;;;;4962429;28;19942;-82
2022/10/09 08:20:44;;;;;;;;;;;;;;;;;;4916414;29;19922;-77
2022/10/09 08:23:10;;;;;;;;;;;;;;;;;;4951676;29;19922;-77
2022/10/09 08:25:35;;;;;;;;;;;;;;;;;;4938623;29;20407;-78
2022/10/09 08:28:01;;;;;;;;;;;;;;;;;;4923589;29;20298;-76
2022/10/09 08:30:26;;;;;;;;;;;;;;;;;;4917203;29;20002;-76
2022/10/09 08:32:52;;;;;;;;;;;;;;;;;;4959349;29;20289;-75
2022/10/09 08:35:17;;;;;;;;;;;;;;;;;;4918801;29;19980;-77
2022/10/09 08:37:43;;;;;;;;;;;;;;;;;;4917406;29;19915;-76
2022/10/09 08:40:08;;;;;;;;;;;;;;;;;;4927787;29;20282;-77
2022/10/09 08:42:34;;;;;;;;;;;;;;;;;;4893747;29;20046;-76
2022/10/09 08:45:00;;;;;;;;;;;;;;;;;;4960821;29;19925;-78
2022/10/09 08:47:25;;;;;;;;;;;;;;;;;;4913506;29;19922;-77
2022/10/09 08:49:51;;;;;;;;;;;;;;;;;;4929183;29;19915;-77
2022/10/09 08:52:16;;;;;;;;;;;;;;;;;;4927872;29;20384;-79
2022/10/09 08:54:42;;;;;;;;;;;;;;;;;;4899520;29;19954;-79
2022/10/09 08:57:10;;;;;;;;;;;;;;;;;;4930427;29;19915;-79
2022/10/09 08:59:36;;;;;;;;;;;;;;;;;;4943475;29;19914;-79
2022/10/09 09:02:01;;;;;;;;;;;;;;;;;;4934083;29;19914;-79
2022/10/09 09:04:27;;;;;;;;;;;;;;;;;;4901785;29;19921;-78
2022/10/09 09:06:53;;;;;;;;;;;;;;;;;;4912335;29;19929;-79
2022/10/09 09:09:18;;;;;;;;;;;;;;;;;;4916306;29;20405;-79
2022/10/09 09:11:44;;;;;;;;;;;;;;;;;;4919515;29;20305;-79
2022/10/09 09:14:09;;;;;;;;;;;;;;;;;;4950735;29;20445;-79
2022/10/09 09:16:35;;;;;;;;;;;;;;;;;;4943486;29;20421;-79
2022/10/09 09:19:00;;;;;;;;;;;;;;;;;;4943942;29;20386;-77
2022/10/09 09:21:29;;;;;;;;;;;;;;;;;;4930213;29;19929;-79
2022/10/09 09:23:57;;;;;;;;;;;;;;;;;;4937952;29;19992;-78
2022/10/09 09:26:23;;;;;;;;;;;;;;;;;;4932481;29;19922;-79
2022/10/09 09:28:48;;;;;;;;;;;;;;;;;;4942280;29;19914;-78
2022/10/09 09:31:14;;;;;;;;;;;;;;;;;;4931416;29;19924;-79
2022/10/09 09:33:39;;;;;;;;;;;;;;;;;;4949355;29;19921;-83
2022/10/09 09:36:04;;;;;;;;;;;;;;;;;;4959769;29;19915;-79
2022/10/09 09:38:30;;;;;;;;;;;;;;;;;;4932760;29;19921;-77
2022/10/09 09:40:55;;;;;;;;;;;;;;;;;;4931363;29;19914;-77
2022/10/09 09:43:21;;;;;;;;;;;;;;;;;;4907001;29;19922;-78
2022/10/09 09:45:46;;;;;;;;;;;;;;;;;;4930502;29;19915;-77
2022/10/09 09:48:12;;;;;;;;;;;;;;;;;;4954451;29;19955;-79
2022/10/09 09:50:39;;;;;;;;;;;;;;;;;;4930435;29;19973;-79
2022/10/09 09:53:05;;;;;;;;;;;;;;;;;;4934675;29;19918;-78
2022/10/09 09:55:30;;;;;;;;;;;;;;;;;;4909092;29;19975;-79
2022/10/09 09:57:56;;;;;;;;;;;;;;;;;;4913426;29;19922;-78
2022/10/09 10:00:21;;;;;;;;;;;;;;;;;;4910655;29;19921;-78
2022/10/09 10:02:47;;;;;;;;;;;;;;;;;;4947737;29;20042;-77
2022/10/09 10:05:18;;;;;;;;;;;;;;;;;;4953184;29;19918;-78
2022/10/09 10:07:43;;;;;;;;;;;;;;;;;;4906237;29;20286;-77
2022/10/09 10:10:09;;;;;;;;;;;;;;;;;;4927185;29;20203;-78
2022/10/09 10:12:34;;;;;;;;;;;;;;;;;;4957440;29;19923;-77
2022/10/09 10:15:02;;;;;;;;;;;;;;;;;;4931453;29;20381;-77
2022/10/09 10:17:28;;;;;;;;;;;;;;;;;;4903969;29;19962;-78
2022/10/09 10:19:53;;;;;;;;;;;;;;;;;;4924230;29;19918;-78
2022/10/09 10:22:19;;;;;;;;;;;;;;;;;;4907183;29;20343;-77
2022/10/09 10:24:45;;;;;;;;;;;;;;;;;;4952787;29;19921;-77
2022/10/09 10:27:10;;;;;;;;;;;;;;;;;;4909804;28;19910;-77
2022/10/09 10:29:36;;;;;;;;;;;;;;;;;;4931292;29;19922;-78
2022/10/09 10:32:02;;;;;;;;;;;;;;;;;;4948003;29;19918;-77
2022/10/09 10:34:28;;;;;;;;;;;;;;;;;;4888830;29;20143;-81
2022/10/09 10:36:53;;;;;;;;;;;;;;;;;;4932937;29;19918;-78
2022/10/09 10:39:22;;;;;;;;;;;;;;;;;;4908345;29;20354;-79
2022/10/09 10:41:48;;;;;;;;;;;;;;;;;;4928336;29;20005;-78
2022/10/09 10:44:17;;;;;;;;;;;;;;;;;;4903050;29;20410;-78
2022/10/09 10:46:47;;;;;;;;;;;;;;;;;;4951950;29;20112;-79
2022/10/09 10:49:13;;;;;;;;;;;;;;;;;;4923641;29;19918;-79
2022/10/09 10:51:39;;;;;;;;;;;;;;;;;;4910287;29;19919;-77
2022/10/09 10:54:04;;;;;;;;;;;;;;;;;;4939920;29;19961;-77
2022/10/09 10:56:30;;;;;;;;;;;;;;;;;;4908938;29;19950;-78
2022/10/09 10:58:56;;;;;;;;;;;;;;;;;;4949621;29;19914;-79
2022/10/09 11:01:24;;;;;;;;;;;;;;;;;;4948322;29;19922;-79
2022/10/09 11:03:50;;;;;;;;;;;;;;;;;;4944628;29;19947;-77
2022/10/09 11:06:15;;;;;;;;;;;;;;;;;;4889753;29;19919;-77
2022/10/09 11:08:40;;;;;;;;;;;;;;;;;;4931176;29;19981;-78
2022/10/09 11:11:06;;;;;;;;;;;;;;;;;;4932434;29;19915;-85
2022/10/09 11:13:32;;;;;;;;;;;;;;;;;;4903103;29;20151;-79
2022/10/09 11:15:57;;;;;;;;;;;;;;;;;;4925597;29;20377;-77
2022/10/09 11:18:22;;;;;;;;;;;;;;;;;;4931449;29;19918;-80
2022/10/09 11:20:48;;;;;;;;;;;;;;;;;;4951166;29;19914;-78
2022/10/09 11:23:14;;;;;;;;;;;;;;;;;;4918157;29;20123;-79
2022/10/09 11:25:39;;;;;;;;;;;;;;;;;;4928615;29;20064;-78
2022/10/09 11:28:05;;;;;;;;;;;;;;;;;;4947110;29;19914;-79
2022/10/09 11:30:30;;;;;;;;;;;;;;;;;;4922416;29;20412;-77
2022/10/09 11:32:56;;;;;;;;;;;;;;;;;;4940234;29;19919;-78
2022/10/09 11:35:21;;;;;;;;;;;;;;;;;;4916371;29;19914;-76
2022/10/09 11:37:47;;;;;;;;;;;;;;;;;;4927280;29;20001;-78
2022/10/09 11:40:12;;;;;;;;;;;;;;;;;;4947208;29;19918;-76
2022/10/09 11:42:38;;;;;;;;;;;;;;;;;;4937365;29;20006;-76
2022/10/09 11:45:06;;;;;;;;;;;;;;;;;;4913820;29;20002;-76
2022/10/09 11:47:32;;;;;;;;;;;;;;;;;;4913650;29;20016;-76
2022/10/09 11:49:57;;;;;;;;;;;;;;;;;;4906937;29;19919;-75
2022/10/09 11:52:23;;;;;;;;;;;;;;;;;;4943765;29;19941;-76
2022/10/09 11:54:49;;;;;;;;;;;;;;;;;;4888267;29;19938;-77
2022/10/09 11:57:15;;;;;;;;;;;;;;;;;;4890908;29;19921;-77
2022/10/09 11:59:41;;;;;;;;;;;;;;;;;;4929978;29;19922;-77
2022/10/09 12:02:06;;;;;;;;;;;;;;;;;;4940536;29;19911;-76
2022/10/09 12:04:32;;;;;;;;;;;;;;;;;;4923858;29;19978;-77
2022/10/09 12:06:58;;;;;;;;;;;;;;;;;;4917302;29;19918;-77
2022/10/09 12:09:23;;;;;;;;;;;;;;;;;;4904033;29;20009;-78
2022/10/09 12:11:49;;;;;;;;;;;;;;;;;;4947797;29;19926;-77
2022/10/09 12:14:14;;;;;;;;;;;;;;;;;;4923129;29;19937;-76
2022/10/09 12:16:40;;;;;;;;;;;;;;;;;;4907695;29;19922;-77
2022/10/09 12:19:05;;;;;;;;;;;;;;;;;;4886376;29;20010;-76
2022/10/09 12:21:31;;;;;;;;;;;;;;;;;;4913944;29;20264;-77
2022/10/09 12:23:56;;;;;;;;;;;;;;;;;;4923543;29;20001;-77
2022/10/09 12:26:22;;;;;;;;;;;;;;;;;;4907073;29;19922;-78
2022/10/09 12:28:47;;;;;;;;;;;;;;;;;;4924955;29;19911;-77
2022/10/09 12:31:13;;;;;;;;;;;;;;;;;;4902353;29;19967;-75
2022/10/09 12:33:38;;;;;;;;;;;;;;;;;;4912633;29;19915;-77
2022/10/09 12:36:04;;;;;;;;;;;;;;;;;;4898108;29;19919;-77
2022/10/09 12:38:30;;;;;;;;;;;;;;;;;;4925185;29;20347;-77
2022/10/09 12:40:56;;;;;;;;;;;;;;;;;;4900302;29;19921;-76
2022/10/09 12:43:21;;;;;;;;;;;;;;;;;;4920080;29;19919;-76
2022/10/09 12:45:47;;;;;;;;;;;;;;;;;;4930743;29;19925;-76
2022/10/09 12:48:12;;;;;;;;;;;;;;;;;;4910126;29;19964;-77
2022/10/09 12:50:38;;;;;;;;;;;;;;;;;;4904893;29;20006;-77
2022/10/09 12:53:03;;;;;;;;;;;;;;;;;;4931881;29;19972;-75
2022/10/09 12:55:29;;;;;;;;;;;;;;;;;;4924091;29;19914;-77
2022/10/09 12:57:54;;;;;;;;;;;;;;;;;;4933052;29;19918;-76
2022/10/09 13:00:20;;;;;;;;;;;;;;;;;;4898955;29;19921;-76
2022/10/09 13:02:47;;;;;;;;;;;;;;;;;;4906242;29;23118;-77
2022/10/09 13:05:13;;;;;;;;;;;;;;;;;;4933693;29;19918;-77
2022/10/09 13:07:39;;;;;;;;;;;;;;;;;;4924679;29;19969;-77
2022/10/09 13:10:04;;;;;;;;;;;;;;;;;;4931671;29;19958;-77
2022/10/09 13:12:29;;;;;;;;;;;;;;;;;;4947757;29;19929;-77
2022/10/09 13:14:55;;;;;;;;;;;;;;;;;;4924821;29;19921;-77
2022/10/09 13:17:24;;;;;;;;;;;;;;;;;;4936055;29;19925;-77
2022/10/09 13:19:49;;;;;;;;;;;;;;;;;;4910071;29;20001;-77
2022/10/09 13:22:15;;;;;;;;;;;;;;;;;;4929573;29;20398;-77
2022/10/09 13:24:40;;;;;;;;;;;;;;;;;;4948984;29;19997;-76
2022/10/09 13:27:05;;;;;;;;;;;;;;;;;;4903864;29;19915;-76
2022/10/09 13:29:31;;;;;;;;;;;;;;;;;;4916537;29;19958;-77
2022/10/09 13:31:56;;;;;;;;;;;;;;;;;;4914253;29;19989;-77
2022/10/09 13:34:23;;;;;;;;;;;;;;;;;;4909356;29;19919;-76
2022/10/09 13:36:48;;;;;;;;;;;;;;;;;;4912367;29;20061;-77
2022/10/09 13:39:14;;;;;;;;;;;;;;;;;;4905333;29;20053;-78
2022/10/09 13:41:39;;;;;;;;;;;;;;;;;;4934531;29;19915;-77
2022/10/09 13:44:05;;;;;;;;;;;;;;;;;;4944524;29;19922;-76
2022/10/09 13:46:30;;;;;;;;;;;;;;;;;;4908634;29;19926;-76
2022/10/09 13:48:56;;;;;;;;;;;;;;;;;;4929943;29;19969;-77
2022/10/09 13:51:22;;;;;;;;;;;;;;;;;;4890979;29;19966;-77
2022/10/09 13:53:47;;;;;;;;;;;;;;;;;;4932646;29;19915;-77
2022/10/09 13:56:13;;;;;;;;;;;;;;;;;;4945267;29;19918;-76
2022/10/09 13:58:38;;;;;;;;;;;;;;;;;;4892038;29;19915;-76
2022/10/09 14:01:04;;;;;;;;;;;;;;;;;;4932209;29;19914;-77
2022/10/09 14:03:30;;;;;;;;;;;;;;;;;;4909964;23;19934;-79
2022/10/09 14:05:55;;;;;;;;;;;;;;;;;;4911182;29;19914;-78
2022/10/09 14:08:21;;;;;;;;;;;;;;;;;;4929255;29;19969;-80
2022/10/09 14:10:46;;;;;;;;;;;;;;;;;;4916989;29;19911;-78
2022/10/09 14:13:13;;;;;;;;;;;;;;;;;;4927207;29;20061;-79
2022/10/09 14:15:39;;;;;;;;;;;;;;;;;;4914939;29;20002;-79
2022/10/09 14:18:04;;;;;;;;;;;;;;;;;;4892252;29;20006;-79
2022/10/09 14:20:30;;;;;;;;;;;;;;;;;;4908202;29;19919;-80
2022/10/09 14:22:55;;;;;;;;;;;;;;;;;;4898461;29;19919;-79
2022/10/09 14:25:21;;;;;;;;;;;;;;;;;;4887939;29;20304;-79
2022/10/09 14:27:46;;;;;;;;;;;;;;;;;;4913317;29;19928;-78
2022/10/09 14:30:12;;;;;;;;;;;;;;;;;;4908858;29;19915;-78
2022/10/09 14:32:38;;;;;;;;;;;;;;;;;;4906634;29;19919;-78
2022/10/09 14:35:03;;;;;;;;;;;;;;;;;;4915391;29;19926;-79
2022/10/09 14:37:29;;;;;;;;;;;;;;;;;;4903118;29;19938;-78
2022/10/09 14:39:54;;;;;;;;;;;;;;;;;;4912199;29;19915;-78
2022/10/09 14:42:20;;;;;;;;;;;;;;;;;;4925964;29;19994;-79
2022/10/09 14:44:46;;;;;;;;;;;;;;;;;;4905384;29;19916;-79
2022/10/09 14:47:11;;;;;;;;;;;;;;;;;;4915110;29;19925;-79
2022/10/09 14:49:37;;;;;;;;;;;;;;;;;;4888119;29;19966;-78
2022/10/09 14:52:02;;;;;;;;;;;;;;;;;;4930900;29;19927;-78
2022/10/09 14:54:28;;;;;;;;;;;;;;;;;;4907115;29;19969;-78
2022/10/09 14:56:54;;;;;;;;;;;;;;;;;;4897656;29;20009;-77
2022/10/09 14:59:19;;;;;;;;;;;;;;;;;;4919497;29;20011;-79
2022/10/09 15:01:45;;;;;;;;;;;;;;;;;;4930175;29;19919;-79
2022/10/09 15:04:12;;;;;;;;;;;;;;;;;;4878232;29;19919;-78
2022/10/09 15:06:38;;;;;;;;;;;;;;;;;;4914911;29;19915;-78
2022/10/09 15:09:04;;;;;;;;;;;;;;;;;;4899086;29;19929;-78
2022/10/09 15:11:30;;;;;;;;;;;;;;;;;;4917744;29;19918;-79
2022/10/09 15:13:55;;;;;;;;;;;;;;;;;;4894981;29;19967;-78
2022/10/09 15:16:21;;;;;;;;;;;;;;;;;;4925508;29;19918;-78
2022/10/09 15:18:47;;;;;;;;;;;;;;;;;;4889259;29;19920;-78
2022/10/09 15:21:12;;;;;;;;;;;;;;;;;;4914441;29;20422;-79
2022/10/09 15:23:38;;;;;;;;;;;;;;;;;;4887377;29;20001;-79
2022/10/09 15:26:04;;;;;;;;;;;;;;;;;;4927201;29;19919;-79
2022/10/09 15:28:29;;;;;;;;;;;;;;;;;;4909748;29;19919;-78
2022/10/09 15:30:55;;;;;;;;;;;;;;;;;;4910137;29;19915;-78
2022/10/09 15:33:24;;;;;;;;;;;;;;;;;;4931063;29;19925;-79
2022/10/09 15:35:50;;;;;;;;;;;;;;;;;;4921619;29;19915;-78
2022/10/09 15:38:15;;;;;;;;;;;;;;;;;;4908393;29;20003;-78
2022/10/09 15:40:41;;;;;;;;;;;;;;;;;;4911319;29;20010;-78
2022/10/09 15:43:07;;;;;;;;;;;;;;;;;;4901572;29;19919;-77
2022/10/09 15:45:33;;;;;;;;;;;;;;;;;;4914207;29;19915;-77
2022/10/09 15:47:58;;;;;;;;;;;;;;;;;;4905604;29;19918;-78
2022/10/09 15:50:23;;;;;;;;;;;;;;;;;;4907194;29;19915;-79
2022/10/09 15:52:49;;;;;;;;;;;;;;;;;;4899509;29;19941;-78
2022/10/09 15:55:15;;;;;;;;;;;;;;;;;;4886295;29;20389;-78
2022/10/09 15:57:40;;;;;;;;;;;;;;;;;;4897481;29;19919;-78
2022/10/09 16:00:06;;;;;;;;;;;;;;;;;;4891184;29;19915;-79
2022/10/09 16:02:31;;;;;;;;;;;;;;;;;;4905817;29;19927;-78
2022/10/09 16:04:57;;;;;;;;;;;;;;;;;;4912964;29;19914;-78
2022/10/09 16:07:22;;;;;;;;;;;;;;;;;;4901767;29;19915;-78
2022/10/09 16:09:48;;;;;;;;;;;;;;;;;;4928816;29;19915;-78
2022/10/09 16:12:14;;;;;;;;;;;;;;;;;;4924231;29;20453;-80
2022/10/09 16:14:41;;;;;;;;;;;;;;;;;;4904809;29;19967;-77
2022/10/09 16:17:06;;;;;;;;;;;;;;;;;;4914252;29;19922;-78
2022/10/09 16:19:32;;;;;;;;;;;;;;;;;;4901989;29;20286;-77
2022/10/09 16:21:57;;;;;;;;;;;;;;;;;;4927482;29;19915;-79
2022/10/09 16:24:23;;;;;;;;;;;;;;;;;;4907999;29;19969;-79
2022/10/09 16:26:49;;;;;;;;;;;;;;;;;;4905550;29;19962;-77
2022/10/09 16:29:15;;;;;;;;;;;;;;;;;;4903200;29;19922;-78
2022/10/09 16:31:40;;;;;;;;;;;;;;;;;;4933577;29;19919;-78
2022/10/09 16:34:06;;;;;;;;;;;;;;;;;;4909586;29;19914;-78
2022/10/09 16:36:32;;;;;;;;;;;;;;;;;;4894109;29;19989;-77
2022/10/09 16:38:58;;;;;;;;;;;;;;;;;;4900841;29;20218;-77
2022/10/09 16:41:23;;;;;;;;;;;;;;;;;;4922207;29;19919;-79
2022/10/09 16:43:49;;;;;;;;;;;;;;;;;;4914631;29;19915;-78
2022/10/09 16:46:14;;;;;;;;;;;;;;;;;;4910849;29;19941;-78
2022/10/09 16:48:40;;;;;;;;;;;;;;;;;;4892787;29;19927;-78
2022/10/09 16:51:06;;;;;;;;;;;;;;;;;;4898603;29;19965;-78
2022/10/09 16:53:33;;;;;;;;;;;;;;;;;;4916373;29;19958;-78
2022/10/09 16:55:58;;;;;;;;;;;;;;;;;;4925299;29;19926;-78
2022/10/09 16:58:24;;;;;;;;;;;;;;;;;;4894960;29;19915;-78
2022/10/09 17:00:50;;;;;;;;;;;;;;;;;;4932158;29;19966;-78
2022/10/09 17:03:15;;;;;;;;;;;;;;;;;;4921010;29;19989;-78
2022/10/09 17:05:42;;;;;;;;;;;;;;;;;;4915805;29;19919;-78
2022/10/09 17:08:08;;;;;;;;;;;;;;;;;;4909357;29;19922;-77
2022/10/09 17:10:34;;;;;;;;;;;;;;;;;;4893054;29;19916;-77
2022/10/09 17:12:59;;;;;;;;;;;;;;;;;;4915535;29;20041;-77
2022/10/09 17:15:25;;;;;;;;;;;;;;;;;;4921368;29;19931;-77
2022/10/09 17:17:50;;;;;;;;;;;;;;;;;;4914269;29;19942;-77
2022/10/09 17:20:16;;;;;;;;;;;;;;;;;;4910340;29;19970;-78
2022/10/09 17:22:41;;;;;;;;;;;;;;;;;;4924163;29;20355;-77
2022/10/09 17:25:07;;;;;;;;;;;;;;;;;;4934005;29;20084;-76
2022/10/09 17:27:32;;;;;;;;;;;;;;;;;;4904949;29;19915;-77
2022/10/09 17:29:58;;;;;;;;;;;;;;;;;;4897598;29;19915;-77
2022/10/09 17:32:24;;;;;;;;;;;;;;;;;;4910784;29;19918;-76
2022/10/09 17:34:49;;;;;;;;;;;;;;;;;;4891101;29;19922;-77
2022/10/09 17:37:14;;;;;;;;;;;;;;;;;;4916277;29;19914;-78
2022/10/09 17:39:40;;;;;;;;;;;;;;;;;;4905623;29;20327;-77
2022/10/09 17:42:05;;;;;;;;;;;;;;;;;;4928912;29;19922;-77
2022/10/09 17:44:30;;;;;;;;;;;;;;;;;;4928800;29;19911;-77
2022/10/09 17:46:56;;;;;;;;;;;;;;;;;;4912446;29;20454;-76
2022/10/09 17:49:21;;;;;;;;;;;;;;;;;;4902105;29;20286;-76
2022/10/09 17:51:47;;;;;;;;;;;;;;;;;;4893547;29;19919;-78
2022/10/09 17:54:13;;;;;;;;;;;;;;;;;;4900529;29;20355;-76
2022/10/09 17:56:38;;;;;;;;;;;;;;;;;;4930009;29;19918;-78
2022/10/09 17:59:04;;;;;;;;;;;;;;;;;;4923434;29;19915;-79
2022/10/09 18:01:29;;;;;;;;;;;;;;;;;;4916187;29;20350;-77
2022/10/09 18:03:55;;;;;;;;;;;;;;;;;;4891158;29;19919;-78
2022/10/09 18:06:22;;;;;;;;;;;;;;;;;;4909796;29;19938;-78
2022/10/09 18:09:09;;;;;;;;;;;;;;;;;;4900787;29;20267;-78
2022/10/09 18:11:38;;;;;;;;;;;;;;;;;;4889673;29;19934;-78
2022/10/09 18:14:03;;;;;;;;;;;;;;;;;;4911592;29;19927;-78
2022/10/09 18:16:35;;;;;;;;;;;;;;;;;;4884673;29;19911;-79
2022/10/09 18:19:00;;;;;;;;;;;;;;;;;;4912341;29;20398;-78
2022/10/09 18:21:25;;;;;;;;;;;;;;;;;;4915799;29;19923;-79
2022/10/09 18:23:51;;;;;;;;;;;;;;;;;;4905516;29;19934;-79
2022/10/09 18:26:16;;;;;;;;;;;;;;;;;;4893929;29;19916;-78
2022/10/09 18:28:42;;;;;;;;;;;;;;;;;;4897227;29;19915;-78
2022/10/09 18:31:08;;;;;;;;;;;;;;;;;;4920398;29;19915;-77
2022/10/09 18:33:33;;;;;;;;;;;;;;;;;;4931901;29;19955;-77
2022/10/09 18:35:59;;;;;;;;;;;;;;;;;;4891566;29;20348;-78
2022/10/09 18:38:24;;;;;;;;;;;;;;;;;;4892920;29;19937;-77
2022/10/09 18:40:49;;;;;;;;;;;;;;;;;;4897907;29;19915;-77
2022/10/09 18:43:15;;;;;;;;;;;;;;;;;;4902569;29;19922;-77
2022/10/09 18:45:40;;;;;;;;;;;;;;;;;;4914145;29;20343;-77
2022/10/09 18:48:06;;;;;;;;;;;;;;;;;;4892064;29;19915;-77
2022/10/09 18:50:32;;;;;;;;;;;;;;;;;;4906645;29;20102;-78
2022/10/09 18:52:57;;;;;;;;;;;;;;;;;;4905907;29;20454;-77
2022/10/09 18:55:23;;;;;;;;;;;;;;;;;;4902994;29;19915;-77
2022/10/09 18:57:48;;;;;;;;;;;;;;;;;;4929970;29;20488;-79
2022/10/09 19:00:14;;;;;;;;;;;;;;;;;;4908675;29;20290;-78
2022/10/09 19:02:40;;;;;;;;;;;;;;;;;;4905594;29;20394;-77
2022/10/09 19:05:05;;;;;;;;;;;;;;;;;;4893287;29;20320;-77
2022/10/09 19:07:30;;;;;;;;;;;;;;;;;;4902814;29;20391;-78
2022/10/09 19:09:56;;;;;;;;;;;;;;;;;;4895952;29;20371;-78
2022/10/09 19:12:21;;;;;;;;;;;;;;;;;;4908738;29;19922;-78
2022/10/09 19:14:47;;;;;;;;;;;;;;;;;;4921870;29;19915;-78
2022/10/09 19:17:12;;;;;;;;;;;;;;;;;;4914731;29;20375;-78
2022/10/09 19:19:38;;;;;;;;;;;;;;;;;;4888432;29;19980;-78
2022/10/09 19:22:07;;;;;;;;;;;;;;;;;;4894655;29;19916;-77
2022/10/09 19:24:32;;;;;;;;;;;;;;;;;;4894418;29;19922;-78
2022/10/09 19:26:58;;;;;;;;;;;;;;;;;;4888584;29;19922;-81
2022/10/09 19:29:24;;;;;;;;;;;;;;;;;;4904667;29;19915;-78
2022/10/09 19:31:50;;;;;;;;;;;;;;;;;;4902556;29;19965;-77
2022/10/09 19:34:15;;;;;;;;;;;;;;;;;;4931984;29;19923;-76
2022/10/09 19:36:42;;;;;;;;;;;;;;;;;;4926094;29;19915;-75
2022/10/09 19:39:07;;;;;;;;;;;;;;;;;;4931635;29;20070;-76
2022/10/09 19:41:33;;;;;;;;;;;;;;;;;;4923421;29;20208;-76